Bracey, VA

12:20 EST le 24 février 2017 (GMT -0500)
Great Creek Landing | | Change Station

Alt. 250 ft 36.59 °N, 78.14 °W | Updated 13 seconds ago

Nuageux
Nuageux
75.1 ° F
Paraît 77 ° F
N
2.0
Vent Variable Vent de Sud

Aujourd'hui
Haut(e) -- | Bas -- ° F
--% Risque de précip.
Hier
Haut(e) -- | Bas -- ° F
Precip. -- pouce
Pression 29.97 pouce
Visibilité 10.0 Miles terrestres
Nuages Nuages épars 2900 ft
Nuages épars 3500 ft
Nuages épars 4300 ft
indice de chaleur 77 ° F
Point de rosée 61 ° F
Humidité 63%
Précipitations 0.00 pouce
Profondeur de la couche neigeuse Non disponible.
6:49 AM 6:02 PM
Lune descendante, 4% visible
METAR KAVC 241716Z AUTO 17005KT 10SM SCT029 SCT035 SCT043 21/15 A2997 RMK AO2 T02070150
Pression 29.97 pouce
Visibilité 10.0 Miles terrestres
Nuages Nuages épars 2900 ft
Nuages épars 3500 ft
Nuages épars 4300 ft
indice de chaleur 77 ° F
Point de rosée 61 ° F
Humidité 63%
Précipitations 0.00 pouce
Profondeur de la couche neigeuse Non disponible.
6:49 AM 6:02 PM
Lune descendante, 4% visible
METAR KAVC 241716Z AUTO 17005KT 10SM SCT029 SCT035 SCT043 21/15 A2997 RMK AO2 T02070150

Get Your Daily Forecast Email!

Thanks for signing up!

Be on the lookout for a verification email in your inbox.

You'll start receiving the daily forecast at 8 AM.

×

10-Day Weather Forecast

Almanac

Astronomie

Feb. 24, 2017 Lever Coucher
Temps réel
Crépuscule civil
Crépuscule nautique
Crépuscule astronomique
Lune
Durée de lumière visible
Longueur du jour
Tomorrow will be .
, % of the Moon is Illuminated

Extrêmes aujourd'hui

State Highs State Lows

Community

WunderPhotos

Upload Photos

1,962,540 Photos téléchargées !

WunderBlog® & News

Nearby

Qualité de l'air

  Qualité de l'air Indice de la qualité de l'air Polluant
Not available.

Épaisseur de neige

Station Depth Altitude

Activité sismique

Ville Distance Mag. Time & Date
Minimum magnitude displayed is 2.5.

Températures des eaux côtières

Lieu Température

Stations

Stations météo à proximité

Emplacement de la station Température Refroidissement éolien Point de rosée Humidité Vent Precip. Alt. Mise à jour Type
                   

Watches & Warnings

There are currently no watches in effect.